createdAt,value
2019-01-24T00:01:12.700Z,8.23
2019-01-24T00:03:42.660Z,8.70
2019-01-24T00:06:12.722Z,8.43
2019-01-24T00:08:42.695Z,9.13
2019-01-24T00:11:12.554Z,8.27
2019-01-24T00:13:42.399Z,8.37
2019-01-24T00:16:12.274Z,8.70
2019-01-24T00:18:42.154Z,8.57
2019-01-24T00:21:12.143Z,9.00
2019-01-24T00:23:41.980Z,9.13
2019-01-24T00:26:11.876Z,9.17
2019-01-24T00:28:41.809Z,8.27
2019-01-24T00:31:11.669Z,8.50
2019-01-24T00:33:41.511Z,8.20
2019-01-24T00:36:11.348Z,8.30
2019-01-24T00:38:41.276Z,9.97
2019-01-24T00:41:11.120Z,9.30
2019-01-24T00:43:40.976Z,8.83
2019-01-24T00:46:10.802Z,8.93
2019-01-24T00:48:40.764Z,9.30
2019-01-24T00:51:10.611Z,8.87
2019-01-24T00:53:40.447Z,8.23
2019-01-24T00:56:10.302Z,8.13
2019-01-24T00:58:40.175Z,7.70
2019-01-24T01:01:10.580Z,7.70
2019-01-24T01:03:40.524Z,8.70
2019-01-24T01:06:10.370Z,9.10
2019-01-24T01:08:40.240Z,8.00
2019-01-24T01:11:10.099Z,9.07
2019-01-24T01:13:40.053Z,8.37
2019-01-24T01:16:09.884Z,8.10
2019-01-24T01:18:39.795Z,8.50
2019-01-24T01:21:09.760Z,8.47
2019-01-24T01:23:39.622Z,8.70
2019-01-24T01:26:09.516Z,9.40
2019-01-24T01:28:39.456Z,8.23
2019-01-24T01:31:09.348Z,9.17
2019-01-24T01:33:39.163Z,7.83
2019-01-24T01:36:09.426Z,8.97
2019-01-24T01:38:39.332Z,8.83
2019-01-24T01:41:09.215Z,9.20
2019-01-24T01:43:39.048Z,8.17
2019-01-24T01:46:08.914Z,8.37
2019-01-24T01:48:38.776Z,8.20
2019-01-24T01:51:08.735Z,9.00
2019-01-24T01:53:38.596Z,7.43
2019-01-24T01:56:08.667Z,8.80
2019-01-24T01:58:38.544Z,8.60
2019-01-24T02:01:09.039Z,8.63
2019-01-24T02:03:38.981Z,8.40
2019-01-24T02:06:08.840Z,8.93
2019-01-24T02:08:38.811Z,9.80
2019-01-24T02:11:08.770Z,9.77
2019-01-24T02:13:38.616Z,9.63
2019-01-24T02:16:08.557Z,8.90
2019-01-24T02:18:38.490Z,10.70
2019-01-24T02:21:08.561Z,10.83
2019-01-24T02:23:38.423Z,10.00
2019-01-24T02:26:08.362Z,8.93
2019-01-24T02:28:38.277Z,9.73
2019-01-24T02:31:08.431Z,9.30
2019-01-24T02:33:38.263Z,10.60
2019-01-24T02:36:08.262Z,11.03
2019-01-24T02:38:38.205Z,10.63
2019-01-24T02:41:08.057Z,10.70
2019-01-24T02:43:37.925Z,10.73
2019-01-24T02:46:07.890Z,10.50
2019-01-24T02:48:37.799Z,10.27
2019-01-24T02:51:07.634Z,10.43
2019-01-24T02:53:37.461Z,10.03
2019-01-24T02:56:07.412Z,10.07
2019-01-24T02:58:37.323Z,11.17
2019-01-24T03:01:07.351Z,10.57
2019-01-24T03:03:37.299Z,10.53
2019-01-24T03:06:07.184Z,11.60
2019-01-24T03:08:37.079Z,10.80
2019-01-24T03:11:07.036Z,10.60
2019-01-24T03:13:36.889Z,11.77
2019-01-24T03:16:06.865Z,11.57
2019-01-24T03:18:36.735Z,10.57
2019-01-24T03:21:06.695Z,11.33
2019-01-24T03:23:36.541Z,11.67
2019-01-24T03:26:06.380Z,12.07
2019-01-24T03:28:36.303Z,11.27
2019-01-24T03:31:06.252Z,11.33
2019-01-24T03:33:36.101Z,11.37
2019-01-24T03:36:06.676Z,11.60
2019-01-24T03:38:36.565Z,12.17
2019-01-24T03:41:06.831Z,12.27
2019-01-24T03:43:36.716Z,13.27
2019-01-24T03:46:06.643Z,13.30
2019-01-24T03:48:37.551Z,11.90
2019-01-24T03:51:07.518Z,13.27
2019-01-24T03:53:37.385Z,13.23
2019-01-24T03:56:07.312Z,12.63
2019-01-24T03:58:37.236Z,14.60
2019-01-24T04:01:07.223Z,14.03
2019-01-24T04:03:37.146Z,13.67
2019-01-24T04:06:07.106Z,14.37
2019-01-24T04:08:36.977Z,14.93
2019-01-24T04:11:06.839Z,15.40
2019-01-24T04:13:36.703Z,15.80
2019-01-24T04:16:06.661Z,16.60
2019-01-24T04:18:36.542Z,15.17
2019-01-24T04:21:06.419Z,14.90
2019-01-24T04:23:36.405Z,15.67
2019-01-24T04:26:06.345Z,15.10
2019-01-24T04:28:37.235Z,14.83
2019-01-24T04:31:07.277Z,15.97
2019-01-24T04:33:37.108Z,16.37
2019-01-24T04:36:07.060Z,15.73
2019-01-24T04:38:37.001Z,16.47
2019-01-24T04:41:06.876Z,16.30
2019-01-24T04:43:36.749Z,16.60
2019-01-24T04:46:06.608Z,16.10
2019-01-24T04:48:36.545Z,17.00
2019-01-24T04:51:06.404Z,16.60
2019-01-24T04:53:36.303Z,16.23
2019-01-24T04:56:06.404Z,16.73
2019-01-24T04:58:36.340Z,16.77
2019-01-24T05:01:06.189Z,16.90
2019-01-24T05:03:36.175Z,17.10
2019-01-24T05:06:06.223Z,16.80
2019-01-24T05:08:37.227Z,17.00
2019-01-24T05:11:07.080Z,16.53
2019-01-24T05:13:37.036Z,17.03
2019-01-24T05:16:06.947Z,16.77
2019-01-24T05:18:36.857Z,16.37
2019-01-24T05:21:06.701Z,16.80
2019-01-24T05:23:36.547Z,16.60
2019-01-24T05:26:06.403Z,15.30
2019-01-24T05:28:36.321Z,16.33
2019-01-24T05:31:06.260Z,15.60
2019-01-24T05:33:36.147Z,16.70
2019-01-24T05:36:06.148Z,17.83
2019-01-24T05:38:36.081Z,16.47
2019-01-24T05:41:05.926Z,16.97
2019-01-24T05:43:35.784Z,17.13
2019-01-24T05:46:05.987Z,16.80
2019-01-24T05:48:35.932Z,17.77
2019-01-24T05:51:06.010Z,17.77
2019-01-24T05:53:35.901Z,16.73
2019-01-24T05:56:06.284Z,17.50
2019-01-24T05:58:36.248Z,17.90
2019-01-24T06:01:07.897Z,18.80
2019-01-24T06:03:37.853Z,18.13
2019-01-24T06:06:07.807Z,19.77
2019-01-24T06:08:37.703Z,17.53
2019-01-24T06:11:07.559Z,19.83
2019-01-24T06:13:37.411Z,19.93
2019-01-24T06:16:07.512Z,19.83
2019-01-24T06:18:37.483Z,19.27
2019-01-24T06:21:07.460Z,20.10
2019-01-24T06:23:37.325Z,19.87
2019-01-24T06:26:07.302Z,20.80
2019-01-24T06:28:37.285Z,20.53
2019-01-24T06:31:07.121Z,20.70
2019-01-24T06:33:36.975Z,21.23
2019-01-24T06:36:06.888Z,20.57
2019-01-24T06:38:36.927Z,19.47
2019-01-24T06:41:06.771Z,20.83
2019-01-24T06:43:36.734Z,20.23
2019-01-24T06:46:06.617Z,19.90
2019-01-24T06:48:36.563Z,21.60
2019-01-24T06:51:06.583Z,20.30
2019-01-24T06:53:36.475Z,21.73
2019-01-24T06:56:06.421Z,21.07
2019-01-24T06:58:36.633Z,20.23
2019-01-24T07:01:06.548Z,22.70
2019-01-24T07:03:37.179Z,20.73
2019-01-24T07:06:07.279Z,22.40
2019-01-24T07:08:37.350Z,21.90
2019-01-24T07:11:07.188Z,21.53
2019-01-24T07:13:37.084Z,19.83
2019-01-24T07:16:07.005Z,22.23
2019-01-24T07:18:38.944Z,19.57
2019-01-24T07:21:08.939Z,21.70
2019-01-24T07:23:38.922Z,22.33
2019-01-24T07:26:08.923Z,21.83
2019-01-24T07:28:38.923Z,21.37
2019-01-24T07:31:08.816Z,21.50
2019-01-24T07:33:38.651Z,21.47
2019-01-24T07:36:08.938Z,23.10
2019-01-24T07:38:38.860Z,20.20
2019-01-24T07:41:09.064Z,21.53
2019-01-24T07:43:38.947Z,21.13
2019-01-24T07:46:09.212Z,19.67
2019-01-24T07:48:40.161Z,20.43
2019-01-24T07:51:10.191Z,20.07
2019-01-24T07:53:40.059Z,20.80
2019-01-24T07:56:09.897Z,19.60
2019-01-24T07:58:39.792Z,20.80
2019-01-24T08:01:09.656Z,18.73
2019-01-24T08:03:40.088Z,20.67
2019-01-24T08:06:10.133Z,21.07
2019-01-24T08:08:40.188Z,20.20
2019-01-24T08:11:10.181Z,20.37
2019-01-24T08:13:40.081Z,19.57
2019-01-24T08:16:10.036Z,19.90
2019-01-24T08:18:39.990Z,18.30
2019-01-24T08:21:09.831Z,18.43
2019-01-24T08:23:39.712Z,18.27
2019-01-24T08:26:09.567Z,18.13
2019-01-24T08:28:39.483Z,15.97
2019-01-24T08:31:09.340Z,15.60
2019-01-24T08:33:39.212Z,16.20
2019-01-24T08:36:15.410Z,15.00
2019-01-24T08:38:40.711Z,16.00
2019-01-24T08:41:10.571Z,17.13
2019-01-24T08:43:40.940Z,16.53
2019-01-24T08:46:11.195Z,16.40
2019-01-24T08:48:41.433Z,16.20
2019-01-24T08:51:11.611Z,16.57
2019-01-24T08:53:42.013Z,17.10
2019-01-24T08:56:12.283Z,15.80
2019-01-24T08:58:42.494Z,14.67
2019-01-24T09:01:12.744Z,16.13
2019-01-24T09:03:43.130Z,15.70
2019-01-24T09:06:13.493Z,16.57
2019-01-24T09:08:43.792Z,16.30
2019-01-24T09:11:14.110Z,14.97
2019-01-24T09:13:44.467Z,16.17
2019-01-24T09:16:14.676Z,16.03
2019-01-24T09:18:44.934Z,13.60
2019-01-24T09:21:15.460Z,13.93
2019-01-24T09:23:45.267Z,15.07
2019-01-24T09:26:15.532Z,15.30
2019-01-24T09:28:45.559Z,13.07
2019-01-24T09:31:15.505Z,15.03
2019-01-24T09:33:45.436Z,13.03
2019-01-24T09:36:15.296Z,13.83
2019-01-24T09:38:45.286Z,15.53
2019-01-24T09:41:15.255Z,14.97
2019-01-24T09:43:45.143Z,15.07
2019-01-24T09:46:15.032Z,14.07
2019-01-24T09:48:44.993Z,15.93
2019-01-24T09:51:14.844Z,15.60
2019-01-24T09:53:44.903Z,15.70
2019-01-24T09:56:14.818Z,16.03
2019-01-24T09:58:44.758Z,16.27
2019-01-24T10:01:14.728Z,15.03
2019-01-24T10:03:44.624Z,13.73
2019-01-24T10:06:14.707Z,15.37
2019-01-24T10:08:44.828Z,14.90
2019-01-24T10:11:14.924Z,17.03
2019-01-24T10:13:44.807Z,16.77
2019-01-24T10:16:14.828Z,17.20
2019-01-24T10:18:44.796Z,16.30
2019-01-24T10:21:14.768Z,18.63
2019-01-24T10:23:44.620Z,18.53
2019-01-24T10:26:14.613Z,17.87
2019-01-24T10:28:44.566Z,17.73
2019-01-24T10:31:14.448Z,18.70
2019-01-24T10:33:44.326Z,19.57
2019-01-24T10:36:14.195Z,19.47
2019-01-24T10:38:44.217Z,19.30
2019-01-24T10:41:14.263Z,20.30
2019-01-24T10:43:44.123Z,19.47
2019-01-24T10:46:14.011Z,19.97
2019-01-24T10:48:45.890Z,20.57
2019-01-24T10:51:15.784Z,20.87
2019-01-24T10:53:45.647Z,20.40
2019-01-24T10:56:15.663Z,19.37
2019-01-24T10:58:45.664Z,20.17
2019-01-24T11:01:15.740Z,19.77
2019-01-24T11:03:45.820Z,21.10
2019-01-24T11:06:15.883Z,20.97
2019-01-24T11:08:45.940Z,20.63
2019-01-24T11:11:15.821Z,19.40
2019-01-24T11:13:45.802Z,20.43
2019-01-24T11:16:15.682Z,19.43
2019-01-24T11:18:45.618Z,20.77
2019-01-24T11:21:15.575Z,18.47
2019-01-24T11:23:45.563Z,18.83
2019-01-24T11:26:15.565Z,19.03
2019-01-24T11:28:45.661Z,19.60
2019-01-24T11:31:16.135Z,22.40
2019-01-24T11:33:46.037Z,19.63
2019-01-24T11:36:16.081Z,19.70
2019-01-24T11:38:46.136Z,21.37
2019-01-24T11:41:16.130Z,20.17
2019-01-24T11:43:46.183Z,18.90
2019-01-24T11:46:16.110Z,19.93
2019-01-24T11:48:45.980Z,20.90
2019-01-24T11:51:15.857Z,19.03
2019-01-24T11:53:45.792Z,19.80
2019-01-24T11:56:15.647Z,19.57
2019-01-24T11:58:45.602Z,20.70
2019-01-24T12:01:15.587Z,20.87
2019-01-24T12:03:45.735Z,21.27
2019-01-24T12:06:16.251Z,21.73
2019-01-24T12:08:46.509Z,20.80
2019-01-24T12:11:16.705Z,21.67
2019-01-24T12:13:46.564Z,20.60
2019-01-24T12:16:16.528Z,19.57
2019-01-24T12:18:46.404Z,19.93
2019-01-24T12:21:16.284Z,20.17
2019-01-24T12:23:46.198Z,18.87
2019-01-24T12:26:16.096Z,19.83
2019-01-24T12:28:45.971Z,18.67
2019-01-24T12:31:15.851Z,18.30
2019-01-24T12:33:45.725Z,18.87
2019-01-24T12:36:15.611Z,16.07
2019-01-24T12:38:45.555Z,18.13
2019-01-24T12:41:15.468Z,16.83
2019-01-24T12:43:45.536Z,17.43
2019-01-24T12:46:15.357Z,15.90
2019-01-24T12:48:45.274Z,16.70
2019-01-24T12:51:15.128Z,16.07
2019-01-24T12:53:45.025Z,15.73
2019-01-24T12:56:14.887Z,15.83
2019-01-24T12:58:44.825Z,15.37
2019-01-24T13:01:14.702Z,14.90
2019-01-24T13:03:44.530Z,15.80
2019-01-24T13:06:14.715Z,15.50
2019-01-24T13:08:44.681Z,16.80
2019-01-24T13:11:14.622Z,15.60
2019-01-24T13:13:44.469Z,13.77
2019-01-24T13:16:14.437Z,15.23
2019-01-24T13:18:44.443Z,15.30
2019-01-24T13:21:14.444Z,10.67
2019-01-24T13:23:44.309Z,13.37
2019-01-24T13:26:14.287Z,13.73
2019-01-24T13:28:44.340Z,13.30
2019-01-24T13:31:14.215Z,13.10
2019-01-24T13:33:44.088Z,12.30
2019-01-24T13:36:13.936Z,12.13
2019-01-24T13:38:44.028Z,13.20
2019-01-24T13:41:13.916Z,12.90
2019-01-24T13:43:43.792Z,13.13
2019-01-24T13:46:13.867Z,13.27
2019-01-24T13:48:43.755Z,12.17
2019-01-24T13:51:13.628Z,11.90
2019-01-24T13:53:43.516Z,12.37
2019-01-24T13:56:13.408Z,12.53
2019-01-24T13:58:43.350Z,12.23
2019-01-24T14:01:13.332Z,12.13
2019-01-24T14:03:56.708Z,10.60
2019-01-24T14:06:26.713Z,11.60
2019-01-24T14:08:56.695Z,11.23
2019-01-24T14:11:26.585Z,11.23
2019-01-24T14:13:56.445Z,11.07
2019-01-24T14:16:26.444Z,12.07
2019-01-24T14:18:56.376Z,11.63
2019-01-24T14:21:26.361Z,9.83
2019-01-24T14:23:56.252Z,10.53
2019-01-24T14:26:26.242Z,11.03
2019-01-24T14:28:56.220Z,10.77
2019-01-24T14:31:26.135Z,10.07
2019-01-24T14:33:56.113Z,9.50
2019-01-24T14:36:25.994Z,10.40
2019-01-24T14:38:55.909Z,10.37
2019-01-24T14:41:25.836Z,10.80
2019-01-24T14:43:55.717Z,11.07
2019-01-24T14:46:25.645Z,10.13
2019-01-24T14:48:55.628Z,9.87
2019-01-24T14:51:25.514Z,9.13
2019-01-24T14:53:55.467Z,10.10
2019-01-24T14:56:25.363Z,9.07
2019-01-24T14:58:55.299Z,9.27
2019-01-24T15:01:27.658Z,9.90
2019-01-24T15:03:57.621Z,9.43
2019-01-24T15:06:27.507Z,10.13
2019-01-24T15:08:57.519Z,9.40
2019-01-24T15:11:27.539Z,9.97
2019-01-24T15:13:57.420Z,9.67
2019-01-24T15:16:27.284Z,9.13
2019-01-24T15:18:57.180Z,10.00
2019-01-24T15:21:27.187Z,10.10
2019-01-24T15:23:57.044Z,8.27
2019-01-24T15:26:26.923Z,10.07
2019-01-24T15:28:56.992Z,10.33
2019-01-24T15:31:26.876Z,11.37
2019-01-24T15:33:58.904Z,9.43
2019-01-24T15:36:28.768Z,10.30
2019-01-24T15:38:59.658Z,9.70
2019-01-24T15:41:29.602Z,10.50
2019-01-24T15:43:59.456Z,11.00
2019-01-24T15:46:29.482Z,10.70
2019-01-24T15:48:59.515Z,11.97
2019-01-24T15:51:29.372Z,12.57
2019-01-24T15:53:59.221Z,12.20
2019-01-24T15:56:29.177Z,14.10
2019-01-24T15:58:59.072Z,13.30
2019-01-24T16:01:28.968Z,13.07
2019-01-24T16:03:58.796Z,13.67
2019-01-24T16:06:28.707Z,14.07
2019-01-24T16:08:58.856Z,14.93
2019-01-24T16:11:28.767Z,15.67
2019-01-24T16:13:58.719Z,16.37
2019-01-24T16:16:28.578Z,15.73
2019-01-24T16:18:58.521Z,17.27
2019-01-24T16:21:28.397Z,16.07
2019-01-24T16:23:58.262Z,17.13
2019-01-24T16:26:28.127Z,15.97
2019-01-24T16:28:58.051Z,16.43
2019-01-24T16:31:27.925Z,18.47
2019-01-24T16:33:57.822Z,16.33
2019-01-24T16:36:27.699Z,17.63
2019-01-24T16:38:57.636Z,18.80
2019-01-24T16:41:27.615Z,18.87
2019-01-24T16:43:57.513Z,18.23
2019-01-24T16:46:27.356Z,18.63
2019-01-24T16:48:57.288Z,17.40
2019-01-24T16:51:27.223Z,18.20
2019-01-24T16:53:57.093Z,18.63
2019-01-24T16:56:26.950Z,16.87
2019-01-24T16:58:56.868Z,18.13
2019-01-24T17:01:26.958Z,19.13
2019-01-24T17:03:56.851Z,15.83
2019-01-24T17:06:28.507Z,16.00
2019-01-24T17:08:59.897Z,15.40
2019-01-24T17:11:29.795Z,16.93
2019-01-24T17:13:59.715Z,15.40
2019-01-24T17:16:29.704Z,17.43
2019-01-24T17:18:59.652Z,17.33
2019-01-24T17:21:29.519Z,18.17
2019-01-24T17:23:59.442Z,17.00
2019-01-24T17:26:29.387Z,17.70
2019-01-24T17:28:59.311Z,17.57
2019-01-24T17:31:29.174Z,16.30
2019-01-24T17:33:59.135Z,16.90
2019-01-24T17:36:29.060Z,15.43
2019-01-24T17:38:58.967Z,16.33
2019-01-24T17:41:29.001Z,15.67
2019-01-24T17:43:58.876Z,16.10
2019-01-24T17:46:28.748Z,16.30
2019-01-24T17:48:59.646Z,16.30
2019-01-24T17:51:29.562Z,16.97
2019-01-24T17:53:59.483Z,14.30
2019-01-24T17:56:29.392Z,16.13
2019-01-24T17:58:59.304Z,18.57
2019-01-24T18:01:29.310Z,17.07
2019-01-24T18:03:59.207Z,15.90
2019-01-24T18:06:29.376Z,15.90
2019-01-24T18:08:59.500Z,14.43
2019-01-24T18:11:30.764Z,16.30
2019-01-24T18:14:00.757Z,17.00
2019-01-24T18:16:30.629Z,16.20
2019-01-24T18:19:00.567Z,17.43
2019-01-24T18:21:30.548Z,15.67
2019-01-24T18:24:00.522Z,16.30
2019-01-24T18:26:30.379Z,16.40
2019-01-24T18:29:00.369Z,14.40
2019-01-24T18:31:30.216Z,13.73
2019-01-24T18:34:00.080Z,14.40
2019-01-24T18:36:29.973Z,34.17
2019-01-24T18:38:59.889Z,14.17
2019-01-24T18:41:29.771Z,11.77
2019-01-24T18:44:00.886Z,14.80
2019-01-24T18:46:30.780Z,14.77
2019-01-24T18:49:00.649Z,15.37
2019-01-24T18:51:30.660Z,11.87
2019-01-24T18:54:00.541Z,13.67
2019-01-24T18:56:30.399Z,13.53
2019-01-24T18:59:00.331Z,14.47
2019-01-24T19:01:30.303Z,14.33
2019-01-24T19:04:00.263Z,14.00
2019-01-24T19:06:30.213Z,13.30
2019-01-24T19:09:00.856Z,14.63
2019-01-24T19:11:30.747Z,13.97
2019-01-24T19:14:00.683Z,14.07
2019-01-24T19:16:30.587Z,13.70
2019-01-24T19:19:00.494Z,13.87
2019-01-24T19:21:30.896Z,13.43
2019-01-24T19:24:00.784Z,12.77
2019-01-24T19:26:30.689Z,13.57
2019-01-24T19:29:00.639Z,13.10
2019-01-24T19:31:30.523Z,14.13
2019-01-24T19:34:00.492Z,14.53
2019-01-24T19:36:30.366Z,12.97
2019-01-24T19:39:00.324Z,16.07
2019-01-24T19:41:30.215Z,14.30
2019-01-24T19:44:00.092Z,13.57
2019-01-24T19:46:32.336Z,13.10
2019-01-24T19:49:03.289Z,13.57
2019-01-24T19:51:33.173Z,12.97
2019-01-24T19:54:03.152Z,12.60
2019-01-24T19:56:33.087Z,10.87
2019-01-24T19:59:03.009Z,11.67
2019-01-24T20:01:32.889Z,12.03
2019-01-24T20:04:03.590Z,12.13
2019-01-24T20:06:33.463Z,11.87
2019-01-24T20:09:04.461Z,11.63
2019-01-24T20:11:34.522Z,10.77
2019-01-24T20:14:04.949Z,12.13
2019-01-24T20:16:34.824Z,11.87
2019-01-24T20:19:05.725Z,12.37
2019-01-24T20:21:35.631Z,12.20
2019-01-24T20:24:07.059Z,11.87
2019-01-24T20:26:36.949Z,12.40
2019-01-24T20:29:06.894Z,12.27
2019-01-24T20:31:36.789Z,13.23
2019-01-24T20:34:06.783Z,12.97
2019-01-24T20:36:36.699Z,12.43
2019-01-24T20:39:09.793Z,13.53
2019-01-24T20:41:39.903Z,11.00
2019-01-24T20:44:09.995Z,12.27
2019-01-24T20:46:39.980Z,14.13
2019-01-24T20:49:10.189Z,15.17
2019-01-24T20:51:42.203Z,15.00
2019-01-24T20:54:12.184Z,13.93
2019-01-24T20:56:42.232Z,12.83
2019-01-24T20:59:12.095Z,15.00
2019-01-24T21:01:41.965Z,13.83
2019-01-24T21:04:11.845Z,13.10
2019-01-24T21:06:41.735Z,14.60
2019-01-24T21:09:14.828Z,14.40
2019-01-24T21:11:43.349Z,14.37
2019-01-24T21:14:13.609Z,13.93
2019-01-24T21:16:43.464Z,14.47
2019-01-24T21:19:13.355Z,14.60
2019-01-24T21:21:43.224Z,13.77
2019-01-24T21:24:13.063Z,13.83
2019-01-24T21:26:44.857Z,15.63
2019-01-24T21:29:14.813Z,15.90
2019-01-24T21:31:44.696Z,16.23
2019-01-24T21:34:14.578Z,14.40
2019-01-24T21:36:45.364Z,14.30
2019-01-24T21:39:21.978Z,14.83
2019-01-24T21:41:49.197Z,16.13
2019-01-24T21:44:19.063Z,16.93
2019-01-24T21:46:48.916Z,15.17
2019-01-24T21:49:18.782Z,14.70
2019-01-24T21:51:48.811Z,15.17
2019-01-24T21:54:18.714Z,15.93
2019-01-24T21:56:48.675Z,13.97
2019-01-24T21:59:18.567Z,15.77
2019-01-24T22:01:48.792Z,16.40
2019-01-24T22:04:18.667Z,17.07
2019-01-24T22:06:48.500Z,15.83
2019-01-24T22:09:18.408Z,17.77
2019-01-24T22:11:48.448Z,15.67
2019-01-24T22:14:18.469Z,16.60
2019-01-24T22:16:48.340Z,15.53
2019-01-24T22:19:18.284Z,15.90
2019-01-24T22:21:48.168Z,16.97
2019-01-24T22:24:18.023Z,17.10
2019-01-24T22:26:47.899Z,18.00
2019-01-24T22:29:18.959Z,13.00
2019-01-24T22:31:48.814Z,18.47
2019-01-24T22:34:18.730Z,17.67
2019-01-24T22:36:48.575Z,17.37
2019-01-24T22:39:18.537Z,17.27
2019-01-24T22:41:48.414Z,18.37
2019-01-24T22:44:18.244Z,16.77
2019-01-24T22:46:48.135Z,16.87
2019-01-24T22:49:18.091Z,19.07
2019-01-24T22:51:47.979Z,18.10
2019-01-24T22:54:17.844Z,18.50
2019-01-24T22:56:47.708Z,18.67
2019-01-24T22:59:17.877Z,16.60
2019-01-24T23:02:04.854Z,17.57
2019-01-24T23:04:34.707Z,18.93
2019-01-24T23:07:04.660Z,17.90
2019-01-24T23:09:34.591Z,18.33
2019-01-24T23:12:04.731Z,18.50
2019-01-24T23:14:34.653Z,20.53
2019-01-24T23:17:04.627Z,19.50
2019-01-24T23:19:34.584Z,20.90
2019-01-24T23:22:04.558Z,21.93
2019-01-24T23:24:34.432Z,20.87
2019-01-24T23:27:04.609Z,20.03
2019-01-24T23:29:34.956Z,21.07
2019-01-24T23:32:05.041Z,21.13
2019-01-24T23:34:34.910Z,21.60
2019-01-24T23:37:05.079Z,20.07
2019-01-24T23:39:35.115Z,20.37
2019-01-24T23:42:05.066Z,19.70
2019-01-24T23:44:34.915Z,19.97
2019-01-24T23:47:04.895Z,21.07
2019-01-24T23:49:34.770Z,22.37
2019-01-24T23:52:04.727Z,20.43
2019-01-24T23:54:34.576Z,19.87
2019-01-24T23:57:04.612Z,18.17
2019-01-24T23:59:34.609Z,19.60
